Time;durP1;ratioP1;P1;durP2;ratioP2;P2;SDS_P1;SDS_P2;PMS_P1;PMS_P2;Temp;Humidity;BMP_temperature;BMP_pressure;BME280_temperature;BME280_humidity;BME280_pressure;Samples;Min_cycle;Max_cycle;Signal;HPM_P1;HPM_P2
2022/04/07 00:02:27;;;;;;;7.90;7.00;;;;;;;9.80;63.92;98645.09;113007;1232;21963;-77
2022/04/07 00:05:06;;;;;;;9.30;6.60;;;;;;;9.83;63.53;98643.79;112367;1238;22131;-77
2022/04/07 00:08:00;;;;;;;10.90;8.00;;;;;;;9.83;63.22;98639.56;112165;1235;23653;-78
2022/04/07 00:10:31;;;;;;;8.80;7.10;;;;;;;9.82;63.06;98635.30;112519;1237;23703;-76
2022/04/07 00:13:04;;;;;;;9.10;7.90;;;;;;;9.81;62.94;98636.49;112477;1237;21948;-77
2022/04/07 00:15:37;;;;;;;8.40;7.10;;;;;;;9.81;62.86;98634.46;112042;1238;23044;-77
2022/04/07 00:18:22;;;;;;;8.70;6.50;;;;;;;9.80;62.91;98634.86;111212;1244;22033;-76
2022/04/07 00:21:11;;;;;;;12.00;7.20;;;;;;;9.81;62.86;98632.71;111635;1241;22211;-77
2022/04/07 00:29:23;;;;;;;7.90;6.70;;;;;;;9.70;62.95;98626.96;112186;1238;21995;-77
2022/04/07 00:31:58;;;;;;;9.00;6.90;;;;;;;9.66;63.02;98624.53;112080;1238;23032;-77
2022/04/07 00:34:31;;;;;;;10.00;7.10;;;;;;;9.63;62.92;98620.95;111407;1244;22040;-77
2022/04/07 00:37:43;;;;;;;8.10;6.70;;;;;;;9.64;62.89;98621.04;112048;1238;22199;-77
2022/04/07 00:40:18;;;;;;;10.10;7.30;;;;;;;9.67;62.99;98616.62;111992;1238;22555;-77
2022/04/07 00:43:10;;;;;;;10.30;7.70;;;;;;;9.71;62.87;98611.71;112089;1238;22518;-77
2022/04/07 00:46:12;;;;;;;10.30;8.50;;;;;;;9.72;62.72;98607.86;111423;1244;23696;-76
2022/04/07 00:49:01;;;;;;;;;;;;;;;;;;;;;
2022/04/07 00:52:33;;;;;;;9.90;8.30;;;;;;;9.71;62.37;98606.08;111351;1241;23671;-76
2022/04/07 00:55:22;;;;;;;9.40;7.70;;;;;;;9.68;62.37;98604.70;111684;1241;21957;-76
2022/04/07 00:58:01;;;;;;;9.60;8.20;;;;;;;9.66;62.37;98598.94;111794;1241;23825;-76
2022/04/07 01:00:59;;;;;;;9.90;8.80;;;;;;;9.64;62.23;98594.40;111702;1241;22064;-76
2022/04/07 01:04:09;;;;;;;15.20;10.50;;;;;;;9.60;62.09;98588.77;111901;1237;22959;-76
2022/04/07 01:07:13;;;;;;;11.20;10.00;;;;;;;9.59;62.09;98591.11;112139;1231;21944;-76
2022/04/07 01:09:52;;;;;;;12.00;8.90;;;;;;;9.59;62.10;98587.59;112114;1239;22004;-76
2022/04/07 01:12:37;;;;;;;10.90;8.60;;;;;;;9.59;62.02;98581.14;111651;1244;23680;-75
2022/04/07 01:15:17;;;;;;;11.60;9.50;;;;;;;9.57;62.07;98577.13;111201;1244;23036;-76
2022/04/07 01:18:20;;;;;;;10.20;9.20;;;;;;;9.56;62.17;98576.19;111538;1244;21962;-76
2022/04/07 01:21:24;;;;;;;11.60;9.10;;;;;;;9.54;62.08;98575.47;111695;1243;21963;-76
2022/04/07 01:24:27;;;;;;;8.70;7.60;;;;;;;9.51;62.14;98578.67;111297;1244;21976;-76
2022/04/07 01:27:20;;;;;;;9.00;7.50;;;;;;;9.47;62.05;98573.28;110886;1251;21969;-75
2022/04/07 01:30:00;;;;;;;11.50;8.10;;;;;;;9.46;62.17;98573.01;110117;1257;23605;-76
2022/04/07 01:33:32;;;;;;;;;;;;;;;;;;;;;
2022/04/07 01:36:05;;;;;;;8.60;7.10;;;;;;;9.49;62.17;98573.00;109143;1267;23731;-76
2022/04/07 01:38:47;;;;;;;10.00;8.10;;;;;;;9.51;62.19;98573.44;109700;1263;22821;-76
2022/04/07 01:41:38;;;;;;;;;;;;;;;9.55;62.18;98567.93;109642;1260;22998;-76
2022/04/07 01:44:35;;;;;;;10.60;7.90;;;;;;;9.49;62.07;98570.89;110110;1257;23609;-76
2022/04/07 01:47:09;;;;;;;8.30;7.20;;;;;;;9.45;62.16;98570.04;110370;1248;24287;-77
2022/04/07 01:49:47;;;;;;;8.80;7.20;;;;;;;9.44;62.09;98563.99;111263;1244;22007;-77
2022/04/07 01:52:29;;;;;;;9.60;7.10;;;;;;;9.42;61.99;98564.36;111211;1244;23320;-76
2022/04/07 01:55:06;;;;;;;9.70;6.50;;;;;;;9.41;61.95;98563.69;111445;1241;23583;-76
2022/04/07 01:57:40;;;;;;;8.50;6.80;;;;;;;9.40;61.90;98565.00;111517;1241;21950;-76
2022/04/07 02:00:25;;;;;;;9.70;6.40;;;;;;;9.39;61.80;98563.72;111209;1245;23602;-76
2022/04/07 02:02:57;;;;;;;7.20;6.00;;;;;;;9.39;61.95;98563.03;110912;1248;21971;-77
2022/04/07 02:05:48;;;;;;;9.20;6.60;;;;;;;9.42;61.97;98558.29;110799;1250;22780;-77
2022/04/07 02:09:15;;;;;;;9.50;6.70;;;;;;;9.42;61.84;98556.71;110982;1248;21973;-77
2022/04/07 02:11:49;;;;;;;7.30;6.00;;;;;;;9.41;61.90;98555.81;111065;1241;23749;-75
2022/04/07 02:15:11;;;;;;;8.40;6.20;;;;;;;9.40;61.91;98558.11;111664;1241;23830;-77
2022/04/07 02:17:48;;;;;;;8.30;7.10;;;;;;;9.38;61.95;98555.41;111840;1238;22565;-79
2022/04/07 02:20:45;;;;;;;;;;;;;;;9.36;61.82;98553.63;112075;1234;21993;-77
2022/04/07 02:23:44;;;;;;;;;;;;;;;;;;;;;
2022/04/07 02:26:50;;;;;;;9.20;7.60;;;;;;;9.22;61.99;98548.65;113017;1231;22410;-75
2022/04/07 02:29:34;;;;;;;7.80;6.90;;;;;;;9.24;61.89;98546.50;112689;1232;22406;-78
2022/04/07 02:32:41;;;;;;;8.90;7.10;;;;;;;9.26;61.84;98550.95;112957;1231;21961;-76
2022/04/07 02:35:19;;;;;;;13.80;7.10;;;;;;;9.29;61.78;98549.13;112935;1230;23581;-75
2022/04/07 02:38:40;;;;;;;12.10;6.60;;;;;;;9.34;61.89;98551.23;112734;1230;22188;-76
2022/04/07 02:41:46;;;;;;;8.60;6.10;;;;;;;9.40;61.87;98550.13;112030;1236;21972;-76
2022/04/07 02:44:24;;;;;;;8.70;6.10;;;;;;;9.44;61.64;98548.46;112213;1238;21971;-76
2022/04/07 02:46:58;;;;;;;8.40;6.30;;;;;;;9.48;61.46;98554.88;112135;1238;21970;-76
2022/04/07 02:49:30;;;;;;;7.70;5.60;;;;;;;9.50;61.26;98549.43;112084;1237;21962;-76
2022/04/07 02:52:14;;;;;;;7.70;6.00;;;;;;;9.50;60.95;98543.46;112194;1237;21963;-77
2022/04/07 02:55:25;;;;;;;;;;;;;;;;;;;;;
2022/04/07 02:59:01;;;;;;;9.20;6.00;;;;;;;9.47;60.89;98544.81;112347;1230;21948;-77
2022/04/07 03:01:53;;;;;;;6.80;5.50;;;;;;;9.48;60.83;98543.56;113039;1231;21943;-75
2022/04/07 03:04:40;;;;;;;7.10;5.50;;;;;;;9.52;60.69;98543.55;112092;1238;21963;-77
2022/04/07 03:07:48;;;;;;;8.50;6.40;;;;;;;9.51;60.55;98544.97;112172;1236;21963;-76
2022/04/07 03:10:48;;;;;;;;;;;;;;;;;;;;;
2022/04/07 03:14:07;;;;;;;10.10;7.20;;;;;;;9.45;60.42;98545.87;112203;1237;23578;-76
2022/04/07 03:16:51;;;;;;;10.10;6.10;;;;;;;9.40;60.35;98540.70;112180;1236;21967;-75
2022/04/07 03:19:48;;;;;;;9.50;6.20;;;;;;;9.36;60.47;98537.90;111656;1243;22018;-75
2022/04/07 03:22:32;;;;;;;6.70;6.00;;;;;;;9.34;60.48;98538.35;111952;1237;23026;-77
2022/04/07 03:28:33;;;;;;;;;;;;;;;;;;;;;
2022/04/07 03:31:33;;;;;;;10.00;7.10;;;;;;;9.30;60.49;98526.88;111793;1241;21973;-77
2022/04/07 03:34:07;;;;;;;7.90;6.40;;;;;;;9.30;60.40;98519.61;111583;1242;23040;-77
2022/04/07 03:36:43;;;;;;;7.90;6.60;;;;;;;9.30;60.42;98524.35;111220;1242;23107;-76
2022/04/07 03:39:23;;;;;;;8.20;6.20;;;;;;;9.30;60.47;98524.60;111505;1241;22002;-77
2022/04/07 03:42:27;;;;;;;12.10;6.50;;;;;;;9.26;60.40;98523.38;111926;1241;23782;-76
2022/04/07 03:45:16;;;;;;;8.40;7.00;;;;;;;9.22;60.43;98524.77;111617;1241;23059;-75
2022/04/07 03:48:01;;;;;;;9.10;6.70;;;;;;;9.18;60.45;98524.73;111553;1241;23940;-77
2022/04/07 03:50:57;;;;;;;;;;;;;;;;;;;;;
2022/04/07 03:54:20;;;;;;;;;;;;;;;;;;;;;
2022/04/07 03:57:28;;;;;;;10.30;7.70;;;;;;;9.05;60.58;98516.42;113020;1231;21953;-77
2022/04/07 04:00:19;;;;;;;10.40;7.50;;;;;;;9.04;60.66;98517.31;112918;1231;22722;-77
2022/04/07 04:03:14;;;;;;;17.10;9.00;;;;;;;9.05;60.75;98513.34;112595;1231;22305;-78
2022/04/07 04:06:37;;;;;;;27.10;13.70;;;;;;;9.02;60.80;98512.66;112815;1232;23391;-78
2022/04/07 04:10:10;;;;;;;28.50;19.00;;;;;;;8.92;60.88;98510.38;112190;1237;21985;-77
2022/04/07 04:13:05;;;;;;;35.60;22.40;;;;;;;8.83;61.08;98509.81;111523;1244;23051;-78
2022/04/07 04:16:28;;;;;;;;;;;;;;;;;;;;;
2022/04/07 04:20:01;;;;;;;35.80;26.30;;;;;;;8.78;61.65;98512.27;111658;1242;22004;-77
2022/04/07 04:23:20;;;;;;;28.60;16.50;;;;;;;8.78;61.81;98511.46;111615;1242;21978;-77
2022/04/07 04:26:55;;;;;;;17.00;13.40;;;;;;;8.79;62.18;98513.61;110463;1256;23027;-77
2022/04/07 04:29:55;;;;;;;13.70;9.70;;;;;;;8.82;62.41;98508.93;110399;1257;23090;-78
2022/04/07 04:33:31;;;;;;;15.70;8.80;;;;;;;8.91;62.61;98506.08;110072;1257;22445;-78
2022/04/07 04:36:34;;;;;;;12.30;8.60;;;;;;;8.99;62.60;98511.45;110283;1257;23092;-76
2022/04/07 04:39:08;;;;;;;13.70;7.90;;;;;;;9.07;62.61;98510.02;110385;1255;21971;-77
2022/04/07 04:41:49;;;;;;;16.00;11.00;;;;;;;9.12;62.47;98502.48;110414;1256;21929;-76
2022/04/07 04:44:38;;;;;;;13.20;9.40;;;;;;;9.14;62.29;98503.77;110570;1254;22248;-77
2022/04/07 04:47:57;;;;;;;16.30;13.30;;;;;;;9.15;62.23;98502.28;111109;1247;21979;-76
2022/04/07 04:51:11;;;;;;;13.40;9.20;;;;;;;9.18;62.35;98497.65;111025;1247;23036;-76
2022/04/07 04:54:00;;;;;;;;;;;;;;;;;;;;;
2022/04/07 04:56:38;;;;;;;13.40;10.50;;;;;;;9.31;62.14;98502.30;111060;1247;23024;-77
2022/04/07 04:59:27;;;;;;;16.10;12.20;;;;;;;9.39;62.00;98502.50;110972;1248;22012;-76
2022/04/07 05:02:39;;;;;;;;;;;;;;;;;;;;;
2022/04/07 05:09:45;;;;;;;;;;;;;;;;;;;;;
2022/04/07 05:12:58;;;;;;;14.80;11.70;;;;;;;9.70;61.70;98494.80;111004;1247;21988;-76
2022/04/07 05:16:15;;;;;;;14.60;12.00;;;;;;;9.77;61.67;98493.11;111011;1247;22863;-77
2022/04/07 05:19:20;;;;;;;;;;;;;;;;;;;;;
2022/04/07 05:23:00;;;;;;;;;;;;;;;;;;;;;
2022/04/07 05:26:09;;;;;;;11.50;10.20;;;;;;;10.10;61.15;98484.55;111267;1245;23695;-76
2022/04/07 05:29:33;;;;;;;10.70;9.60;;;;;;;10.19;60.67;98476.88;111129;1248;23507;-77
2022/04/07 05:33:01;;;;;;;12.50;10.10;;;;;;;10.26;60.60;98477.31;110764;1251;24345;-76
2022/04/07 05:36:16;;;;;;;12.50;9.40;;;;;;;10.28;60.25;98470.44;110789;1251;21957;-76
2022/04/07 05:39:08;;;;;;;13.60;9.20;;;;;;;10.32;60.21;98473.51;110452;1256;23602;-76
2022/04/07 05:41:58;;;;;;;13.80;9.70;;;;;;;10.33;60.03;98470.61;110484;1256;23035;-77
2022/04/07 05:45:01;;;;;;;;;;;;;;;;;;;;;
2022/04/07 05:48:51;;;;;;;14.60;9.00;;;;;;;10.37;60.05;98465.29;111575;1241;21951;-77
2022/04/07 05:52:34;;;;;;;;;;;;;;;;;;;;;
2022/04/07 05:57:00;;;;;;;;;;;;;;;;;;;;;
2022/04/07 06:01:00;;;;;;;15.80;10.70;;;;;;;10.36;59.78;98454.85;110590;1253;22423;-79
2022/04/07 06:05:35;;;;;;;;;;;;;;;;;;;;;
2022/04/07 06:09:44;;;;;;;;;;;;;;;;;;;;;
2022/04/07 06:12:53;;;;;;;;;;;;;;;;;;;;;
2022/04/07 06:19:25;;;;;;;;;;;;;;;;;;;;;
2022/04/07 06:23:17;;;;;;;;;;;;;;;;;;;;;
2022/04/07 06:27:16;;;;;;;15.10;9.60;;;;;;;10.77;59.73;98444.48;108532;1277;22796;-82
2022/04/07 06:30:56;;;;;;;16.10;9.00;;;;;;;10.93;59.37;98449.55;108575;1277;23750;-83
2022/04/07 06:33:58;;;;;;;;;;;;;;;;;;;;;
2022/04/07 06:38:45;;;;;;;;;;;;;;;;;;;;;
2022/04/07 06:42:57;;;;;;;;;;;;;;;;;;;;;
2022/04/07 06:53:54;;;;;;;10.20;7.90;;;;;;;11.80;57.41;98442.77;103126;1295;22583;-85
2022/04/07 06:56:57;;;;;;;;;;;;;;;;;;;;;
2022/04/07 07:00:39;;;;;;;;;;;;;;;;;;;;;
2022/04/07 07:04:32;;;;;;;;;;;;;;;;;;;;;
2022/04/07 07:19:29;;;;;;;;;;;;;;;;;;;;;
2022/04/07 07:23:20;;;;;;;;;;;;;;;;;;;;;
2022/04/07 07:32:31;;;;;;;;;;;;;;;;;;;;;
2022/04/07 07:36:50;;;;;;;11.80;10.10;;;;;;;15.62;50.79;98403.41;109550;1263;21982;-80
2022/04/07 07:44:02;;;;;;;9.00;6.50;;;;;;;16.82;47.73;98387.50;108642;1278;22293;-85
2022/04/07 07:55:59;;;;;;;;;;;;;;;;;;;;;
2022/04/07 07:59:43;;;;;;;;;;;;;;;;;;;;;
2022/04/07 08:03:01;;;;;;;;;;;;;;;18.44;42.56;98368.84;105156;1293;22780;-83
2022/04/07 08:07:14;;;;;;;;;;;;;;;;;;;;;
2022/04/07 08:10:32;;;;;;;8.80;5.20;;;;;;;19.08;41.03;98358.61;106288;1305;22406;-84
2022/04/07 08:34:32;;;;;;;;;;;;;;;;;;;;;
2022/04/07 08:53:07;;;;;;;3.30;2.50;;;;;;;21.94;34.81;98328.23;110224;1264;21999;-86
2022/04/07 08:57:35;;;;;;;;;;;;;;;;;;;;;
2022/04/07 09:24:11;;;;;;;;;;;;;;;;;;;;;
2022/04/07 10:45:44;;;;;;;;;;;;;;;24.33;28.06;98138.15;110326;1265;23049;-86
2022/04/07 11:57:09;;;;;;;2.80;2.20;;;;;;;18.02;35.87;98044.78;105309;1268;22007;-86
2022/04/07 12:15:34;;;;;;;;;;;;;;;;;;;;;
2022/04/07 12:38:20;;;;;;;;;;;;;;;;;;;;;
2022/04/07 12:53:05;;;;;;;;;;;;;;;;;;;;;
2022/04/07 12:56:58;;;;;;;;;;;;;;;;;;;;;
2022/04/07 13:21:10;;;;;;;;;;;;;;;;;;;;;
2022/04/07 13:24:36;;;;;;;;;;;;;;;;;;;;;
2022/04/07 14:18:54;;;;;;;5.70;1.80;;;;;;;17.39;35.91;97720.48;109327;1272;22108;-86
2022/04/07 14:22:00;;;;;;;18.40;2.60;;;;;;;17.36;35.79;97712.34;109245;1273;23707;-86
2022/04/07 14:25:30;;;;;;;;;;;;;;;;;;;;;
2022/04/07 14:33:02;;;;;;;;;;;;;;;;;;;;;
2022/04/07 14:41:52;;;;;;;;;;;;;;;;;;;;;
2022/04/07 15:00:46;;;;;;;;;;;;;;;;;;;;;
2022/04/07 15:16:20;;;;;;;;;;;;;;;;;;;;;
2022/04/07 15:20:03;;;;;;;;;;;;;;;;;;;;;
2022/04/07 15:27:29;;;;;;;;;;;;;;;;;;;;;
2022/04/07 15:34:56;;;;;;;;;;;;;;;;;;;;;
2022/04/07 15:42:36;;;;;;;;;;;;;;;;;;;;;
2022/04/07 15:46:26;;;;;;;;;;;;;;;;;;;;;
2022/04/07 15:50:29;;;;;;;;;;;;;;;;;;;;;
2022/04/07 16:29:48;;;;;;;19.60;3.40;;;;;;;16.50;36.43;97511.42;106308;1267;22057;-85
2022/04/07 16:33:13;;;;;;;;;;;;;;;;;;;;;
2022/04/07 16:37:04;;;;;;;21.90;5.60;;;;;;;16.34;36.76;97513.17;109791;1267;22402;-88
2022/04/07 16:41:01;;;;;;;14.70;3.70;;;;;;;16.24;37.13;97514.01;109498;1269;22008;-84
2022/04/07 16:49:30;;;;;;;;;;;;;;;;;;;;;
2022/04/07 16:53:15;;;;;;;;;;;;;;;;;;;;;
2022/04/07 16:57:22;;;;;;;14.80;5.60;;;;;;;15.82;38.77;97501.70;106989;1296;22541;-83
2022/04/07 17:00:51;;;;;;;12.90;4.80;;;;;;;15.73;39.26;97507.70;107144;1296;22032;-85
2022/04/07 17:08:54;;;;;;;16.90;12.70;;;;;;;15.42;41.11;97496.08;109520;1270;21995;-85
2022/04/07 17:13:28;;;;;;;;;;;;;;;;;;;;;
2022/04/07 17:16:28;;;;;;;;;;;;;;;;;;;;;
2022/04/07 17:20:29;;;;;;;;;;;;;;;;;;;;;
2022/04/07 17:27:36;;;;;;;;;;;;;;;;;;;;;
2022/04/07 17:37:09;;;;;;;;;;;;;;;;;;;;;
2022/04/07 17:41:18;;;;;;;;;;;;;;;;;;;;;
2022/04/07 17:45:14;;;;;;;;;;;;;;;;;;;;;
2022/04/07 17:54:44;;;;;;;10.50;5.50;;;;;;;14.27;47.21;97431.77;106738;1298;22047;-84
2022/04/07 17:58:13;;;;;;;8.80;5.60;;;;;;;14.23;47.92;97430.05;106643;1299;22050;-82
2022/04/07 18:01:25;;;;;;;;;;;;;;;;;;;;;
2022/04/07 18:04:11;;;;;;;8.10;5.90;;;;;;;14.01;49.10;97421.36;106603;1299;22071;-84
2022/04/07 18:09:57;;;;;;;8.60;6.60;;;;;;;13.86;50.31;97421.48;106869;1295;22061;-82
2022/04/07 18:12:51;;;;;;;6.60;4.60;;;;;;;13.83;50.74;97417.43;107229;1292;22010;-82
2022/04/07 18:16:08;;;;;;;7.50;6.70;;;;;;;13.66;51.35;97402.02;107263;1294;22065;-83
2022/04/07 18:19:33;;;;;;;16.10;11.40;;;;;;;13.53;51.98;97392.36;106809;1295;23828;-85
2022/04/07 18:22:35;;;;;;;20.10;16.30;;;;;;;13.46;52.44;97398.11;107529;1287;22891;-82
2022/04/07 18:26:40;;;;;;;;;;;;;;;;;;;;;
2022/04/07 18:29:55;;;;;;;16.60;14.80;;;;;;;13.39;52.86;97410.29;106995;1296;22031;-86
2022/04/07 18:33:21;;;;;;;10.00;6.50;;;;;;;13.55;52.89;97406.33;108401;1280;549785;-86
2022/04/07 18:36:03;;;;;;;10.20;7.10;;;;;;;13.52;53.07;97413.27;109690;1263;22071;-85
2022/04/07 18:38:50;;;;;;;9.00;6.00;;;;;;;13.50;53.48;97416.21;109470;1266;21993;-84
2022/04/07 18:41:23;;;;;;;8.00;6.50;;;;;;;13.42;53.67;97422.92;109265;1267;22260;-83
2022/04/07 18:43:58;;;;;;;9.20;6.20;;;;;;;13.34;54.16;97436.02;109177;1272;22788;-84
2022/04/07 18:47:03;;;;;;;13.90;11.50;;;;;;;13.23;54.67;97449.24;100456;1279;5608932;-83
2022/04/07 18:49:41;;;;;;;8.60;6.80;;;;;;;13.17;55.27;97465.01;108406;1280;23096;-82
2022/04/07 18:52:51;;;;;;;10.40;7.00;;;;;;;13.18;55.70;97531.97;108689;1282;22011;-83
2022/04/07 18:55:30;;;;;;;16.50;6.00;;;;;;;13.12;56.25;97609.63;108439;1283;22067;-82
2022/04/07 18:58:18;;;;;;;10.10;4.40;;;;;;;12.86;55.89;97643.65;108164;1286;22059;-82
2022/04/07 19:00:56;;;;;;;8.90;5.50;;;;;;;12.35;55.59;97645.75;108364;1285;22050;-82
2022/04/07 19:03:39;;;;;;;10.50;7.00;;;;;;;11.90;55.93;97641.15;108770;1279;22443;-81
2022/04/07 19:06:18;;;;;;;8.80;3.50;;;;;;;11.61;56.48;97633.08;108763;1279;22248;-85
2022/04/07 19:08:56;;;;;;;11.90;4.00;;;;;;;11.33;56.73;97628.48;108928;1274;22001;-84
2022/04/07 19:11:38;;;;;;;7.90;3.40;;;;;;;11.08;57.10;97631.45;109141;1273;23701;-81
2022/04/07 19:19:50;;;;;;;;;;;;;;;;;;;;;
2022/04/07 19:23:11;;;;;;;9.70;5.00;;;;;;;10.49;59.15;97550.17;108044;1288;22074;-81
2022/04/07 19:26:44;;;;;;;;;;;;;;;;;;;;;
2022/04/07 19:30:17;;;;;;;35.90;16.60;;;;;;;10.41;60.14;97551.73;108652;1279;22537;-81
2022/04/07 19:33:59;;;;;;;;;;;;;;;;;;;;;
2022/04/07 19:38:14;;;;;;;;;;;;;;;;;;;;;
2022/04/07 19:42:33;;;;;;;56.70;40.90;;;;;;;10.18;61.85;97541.58;108689;1279;22457;-82
2022/04/07 19:46:00;;;;;;;;;;;;;;;;;;;;;
2022/04/07 19:49:24;;;;;;;;;;;;;;;;;;;;;
2022/04/07 19:52:21;;;;;;;;;;;;;;;;;;;;;
2022/04/07 19:55:50;;;;;;;;;;;;;;;;;;;;;
2022/04/07 20:05:04;;;;;;;7.60;3.90;;;;;;;10.03;64.07;97562.68;107633;1289;23097;-81
2022/04/07 20:07:57;;;;;;;;;;;;;;;;;;;;;
2022/04/07 20:11:23;;;;;;;;;;;;;;;;;;;;;
2022/04/07 20:15:15;;;;;;;7.00;4.50;;;;;;;9.99;64.25;97569.14;107514;1291;22010;-80
2022/04/07 20:18:24;;;;;;;8.00;4.10;;;;;;;9.98;64.57;97561.58;107170;1292;22006;-82
2022/04/07 20:21:13;;;;;;;9.10;5.20;;;;;;;9.97;64.77;97561.98;107520;1285;24385;-81
2022/04/07 20:23:58;;;;;;;6.50;4.60;;;;;;;9.99;64.89;97577.05;107927;1286;22096;-81
2022/04/07 20:27:50;;;;;;;4.90;3.20;;;;;;;9.98;65.05;97580.45;107941;1286;22008;-80
2022/04/07 20:31:32;;;;;;;4.90;3.50;;;;;;;10.00;65.22;97570.77;107924;1285;23676;-79
2022/04/07 20:34:59;;;;;;;8.90;3.90;;;;;;;10.00;65.39;97538.52;107661;1291;22056;-80
2022/04/07 20:38:25;;;;;;;;;;;;;;;;;;;;;
2022/04/07 20:42:40;;;;;;;5.70;3.80;;;;;;;10.04;65.68;97585.91;107638;1289;22018;-82
2022/04/07 20:46:46;;;;;;;;;;;;;;;;;;;;;
2022/04/07 20:50:01;;;;;;;;;;;;;;;;;;;;;
2022/04/07 20:53:29;;;;;;;;;;;;;;;;;;;;;
2022/04/07 20:57:23;;;;;;;7.30;4.10;;;;;;;10.06;65.84;97576.19;108023;1285;22114;-80
2022/04/07 21:00:52;;;;;;;18.80;15.70;;;;;;;10.07;65.82;97566.61;107934;1285;22354;-79
2022/04/07 21:04:42;;;;;;;;;;;;;;;;;;;;;
2022/04/07 21:12:30;;;;;;;10.20;5.80;;;;;;;10.17;65.76;97539.44;108311;1282;24972;-79
2022/04/07 21:16:24;;;;;;;8.60;5.20;;;;;;;10.19;65.79;97545.38;108075;1282;22757;-78
2022/04/07 21:20:21;;;;;;;;;;;;;;;;;;;;;
2022/04/07 21:27:40;;;;;;;;;;;;;;;;;;;;;
2022/04/07 21:31:11;;;;;;;6.40;4.40;;;;;;;9.97;65.49;97587.60;108565;1268;21999;-81
2022/04/07 21:34:36;;;;;;;5.90;4.10;;;;;;;9.90;65.79;97592.05;108533;1279;21995;-79
2022/04/07 21:37:59;;;;;;;;;;;;;;;;;;;;;
2022/04/07 21:41:52;;;;;;;12.60;10.70;;;;;;;9.82;66.11;97590.98;108735;1273;22019;-80
2022/04/07 21:46:00;;;;;;;;;;;;;;;;;;;;;
2022/04/07 21:49:42;;;;;;;11.40;7.40;;;;;;;9.70;66.70;97611.10;107734;1288;23628;-79
2022/04/07 21:53:40;;;;;;;;;;;;;;;;;;;;;
2022/04/07 21:56:35;;;;;;;;;;;;;;;;;;;;;
2022/04/07 21:59:46;;;;;;;;;;;;;;;;;;;;;
2022/04/07 22:03:06;;;;;;;;;;;;;;;;;;;;;
2022/04/07 22:06:07;;;;;;;7.50;3.00;;;;;;;9.79;66.65;97658.36;107351;1289;22017;-79
2022/04/07 22:10:11;;;;;;;5.90;2.20;;;;;;;9.79;66.16;97662.66;107983;1282;22102;-80
2022/04/07 22:14:39;;;;;;;;;;;;;;;;;;;;;
2022/04/07 22:17:24;;;;;;;;;;;;;;;;;;;;;
2022/04/07 22:20:58;;;;;;;7.60;2.60;;;;;;;9.58;64.76;97640.94;108370;1279;23259;-82
2022/04/07 22:24:29;;;;;;;4.50;2.80;;;;;;;9.54;64.18;97635.05;107890;1282;22001;-82
2022/04/07 22:28:06;;;;;;;4.30;2.00;;;;;;;9.47;63.61;97636.58;107970;1283;22265;-81
2022/04/07 22:31:33;;;;;;;;;;;;;;;;;;;;;
2022/04/07 22:34:53;;;;;;;4.40;2.10;;;;;;;9.46;62.99;97632.79;107847;1288;22798;-81
2022/04/07 22:38:05;;;;;;;;;;;;;;;9.48;62.61;97632.63;107681;1288;22024;-83
2022/04/07 22:41:29;;;;;;;3.10;1.40;;;;;;;9.40;62.32;97634.50;107905;1276;23230;-80
2022/04/07 22:45:32;;;;;;;3.30;1.60;;;;;;;9.35;61.81;97637.23;108313;1282;22044;-82
2022/04/07 22:49:00;;;;;;;4.30;1.80;;;;;;;9.31;61.19;97643.35;107992;1282;22050;-82
2022/04/07 22:52:35;;;;;;;;;;;;;;;;;;;;;
2022/04/07 22:56:21;;;;;;;;;;;;;;;;;;;;;
2022/04/07 23:02:36;;;;;;;;;;;;;;;;;;;;;
2022/04/07 23:05:59;;;;;;;5.10;2.20;;;;;;;9.10;59.61;97633.39;107311;1291;22013;-81
2022/04/07 23:09:07;;;;;;;;;;;;;;;;;;;;;
2022/04/07 23:12:20;;;;;;;4.10;2.20;;;;;;;9.15;59.53;97637.63;107306;1292;23082;-81
2022/04/07 23:15:47;;;;;;;;;;;;;;;;;;;;;
2022/04/07 23:19:10;;;;;;;4.10;2.50;;;;;;;9.14;59.32;97644.00;107301;1294;22051;-82
2022/04/07 23:22:38;;;;;;;;;;;;;;;;;;;;;
2022/04/07 23:26:22;;;;;;;;;;;;;;;;;;;;;
2022/04/07 23:33:38;;;;;;;5.50;2.20;;;;;;;9.02;59.24;97643.27;105943;1305;22044;-81
2022/04/07 23:40:19;;;;;;;;;;;;;;;;;;;;;
2022/04/07 23:43:51;;;;;;;;;;;;;;;;;;;;;
2022/04/07 23:47:15;;;;;;;6.50;2.90;;;;;;;9.06;59.49;97673.32;106837;1296;22059;-80
2022/04/07 23:50:27;;;;;;;5.70;2.50;;;;;;;9.07;59.37;97679.70;106722;1299;23727;-80
2022/04/07 23:53:52;;;;;;;;;;;;;;;;;;;;;
2022/04/07 23:57:05;;;;;;;7.30;2.20;;;;;;;9.06;59.32;97689.52;106205;1302;22027;-84
